createdAt,value
2023-04-25T00:00:06.971Z,0.94
2023-04-25T00:01:42.802Z,0.94
2023-04-25T00:03:03.115Z,0.94
2023-04-25T00:03:49.407Z,0.94
2023-04-25T00:04:34.434Z,0.94
2023-04-25T00:05:22.305Z,1.21
2023-04-25T00:06:04.681Z,1.08
2023-04-25T00:06:48.279Z,1.08
2023-04-25T00:09:04.127Z,0.64
2023-04-25T00:09:48.110Z,0.94
2023-04-25T00:10:42.008Z,1.08
2023-04-25T00:11:19.127Z,0.94
2023-04-25T00:12:04.008Z,1.08
2023-04-25T00:12:49.772Z,1.08
2023-04-25T00:13:33.987Z,0.94
2023-04-25T00:14:19.862Z,0.94
2023-04-25T00:15:04.123Z,0.94
2023-04-25T00:15:49.101Z,0.94
2023-04-25T00:16:37.943Z,0.73
2023-04-25T00:17:22.387Z,0.73
2023-04-25T00:18:04.104Z,1.08
2023-04-25T00:18:51.857Z,1.08
2023-04-25T00:19:35.665Z,1.08
2023-04-25T00:20:28.548Z,1.08
2023-04-25T00:21:04.164Z,1.08
2023-04-25T00:21:49.171Z,0.94
2023-04-25T00:22:34.248Z,0.94
2023-04-25T00:23:19.370Z,1.08
2023-04-25T00:24:04.464Z,0.94
2023-04-25T00:24:49.673Z,0.73
2023-04-25T00:25:36.796Z,0.94
2023-04-25T00:26:21.495Z,0.94
2023-04-25T00:27:04.441Z,0.64
2023-04-25T00:27:49.900Z,0.94
2023-04-25T00:28:34.220Z,1.08
2023-04-25T00:29:25.920Z,1.08
2023-04-25T00:30:07.116Z,1.08
2023-04-25T00:31:02.025Z,1.08
2023-04-25T00:31:35.933Z,1.08
2023-04-25T00:33:08.647Z,0.94
2023-04-25T00:33:50.091Z,0.94
2023-04-25T00:34:34.774Z,0.81
2023-04-25T00:35:23.196Z,0.81
2023-04-25T00:36:04.888Z,0.94
2023-04-25T00:36:53.126Z,0.94
2023-04-25T00:37:35.175Z,1.08
2023-04-25T00:39:05.744Z,1.21
2023-04-25T00:40:01.702Z,0.94
2023-04-25T00:40:55.625Z,0.94
2023-04-25T00:41:25.685Z,0.94
2023-04-25T00:42:07.682Z,0.94
2023-04-25T00:42:54.006Z,0.81
2023-04-25T00:43:38.235Z,0.81
2023-04-25T00:44:23.242Z,0.81
2023-04-25T00:45:08.128Z,0.81
2023-04-25T00:45:52.884Z,0.81
2023-04-25T00:46:47.575Z,0.55
2023-04-25T00:47:31.309Z,0.81
2023-04-25T00:48:08.546Z,0.81
2023-04-25T00:48:53.981Z,0.81
2023-04-25T00:49:55.694Z,0.67
2023-04-25T00:50:24.180Z,0.94
2023-04-25T00:51:08.670Z,0.81
2023-04-25T00:51:59.865Z,0.81
2023-04-25T00:52:39.664Z,0.81
2023-04-25T00:53:30.935Z,0.67
2023-04-25T00:55:00.525Z,0.55
2023-04-25T00:57:26.256Z,0.94
2023-04-25T00:57:57.921Z,0.67
2023-04-25T00:58:42.894Z,0.81
2023-04-25T00:59:24.307Z,0.94
2023-04-25T01:01:05.299Z,0.94
2023-04-25T01:01:39.556Z,0.67
2023-04-25T01:02:29.705Z,0.67
2023-04-25T01:03:13.442Z,0.64
2023-04-25T01:03:59.354Z,0.81
2023-04-25T01:04:41.251Z,0.55
2023-04-25T01:05:29.631Z,0.81
2023-04-25T01:06:16.489Z,0.73
2023-04-25T01:07:03.327Z,0.94
2023-04-25T01:08:36.824Z,0.81
2023-04-25T01:08:48.047Z,0.81
2023-04-25T01:09:13.885Z,0.94
2023-04-25T01:09:56.234Z,0.94
2023-04-25T01:10:45.103Z,0.64
2023-04-25T01:11:34.320Z,0.94
2023-04-25T01:12:10.232Z,1.21
2023-04-25T01:13:05.419Z,1.08
2023-04-25T01:15:59.436Z,0.94
2023-04-25T01:16:46.415Z,0.94
2023-04-25T01:17:25.779Z,1.08
2023-04-25T01:18:10.322Z,0.94
2023-04-25T01:18:55.315Z,0.94
2023-04-25T01:19:49.796Z,0.94
2023-04-25T01:20:25.649Z,0.94
2023-04-25T01:21:14.422Z,0.94
2023-04-25T01:21:55.647Z,1.08
2023-04-25T01:22:44.880Z,0.64
2023-04-25T01:23:29.445Z,0.73
2023-04-25T01:24:16.394Z,0.94
2023-04-25T01:24:56.287Z,0.94
2023-04-25T01:25:57.537Z,0.55
2023-04-25T01:26:42.793Z,0.73
2023-04-25T01:27:24.670Z,0.94
2023-04-25T01:28:01.739Z,0.94
2023-04-25T01:28:43.422Z,1.08
2023-04-25T01:29:38.910Z,0.73
2023-04-25T01:30:15.280Z,1.08
2023-04-25T01:31:08.324Z,0.94
2023-04-25T01:33:05.538Z,0.94
2023-04-25T07:50:22.669Z,2.42
2023-04-25T07:50:58.446Z,2.42
2023-04-25T07:51:43.679Z,2.42
2023-04-25T07:52:42.025Z,1.55
2023-04-25T07:53:25.068Z,1.55
2023-04-25T07:53:59.168Z,2.28
2023-04-25T07:54:43.204Z,2.28
2023-04-25T07:55:28.277Z,2.15
2023-04-25T07:56:17.525Z,2.15
2023-04-25T07:57:46.229Z,2.15
2023-04-25T07:58:34.155Z,2.15
2023-04-25T07:59:13.301Z,2.15
2023-04-25T08:00:43.829Z,2.28
2023-04-25T08:01:28.610Z,2.15
2023-04-25T08:02:41.405Z,2.15
2023-04-25T08:03:04.755Z,2.28
2023-04-25T08:04:30.231Z,2.15
2023-04-25T08:06:00.719Z,2.28
2023-04-25T08:06:49.217Z,1.46
2023-04-25T08:07:34.564Z,2.28
2023-04-25T08:08:17.136Z,2.15
2023-04-25T08:09:03.545Z,2.15
2023-04-25T08:09:47.707Z,2.15
2023-04-25T08:11:15.514Z,2.15
2023-04-25T08:12:01.258Z,2.02
2023-04-25T08:13:19.408Z,2.15
2023-04-25T08:13:29.500Z,1.55
2023-04-25T08:14:14.916Z,2.15
2023-04-25T08:18:10.534Z,1.88
2023-04-25T08:25:50.265Z,1.55
2023-04-25T08:29:53.870Z,2.15
2023-04-25T08:30:20.942Z,2.15
2023-04-25T08:31:44.198Z,1.37
2023-04-25T08:32:27.202Z,2.15
2023-04-25T08:32:46.069Z,2.15
2023-04-25T08:33:07.530Z,2.28
2023-04-25T08:34:03.475Z,2.15
2023-04-25T08:36:11.574Z,2.28
2023-04-25T08:37:23.622Z,2.02
2023-04-25T08:37:47.808Z,1.55
2023-04-25T08:40:51.400Z,2.28
2023-04-25T08:43:17.032Z,2.15
2023-04-25T08:43:50.418Z,2.15
2023-04-25T08:44:22.954Z,2.28
2023-04-25T08:46:09.253Z,2.02
2023-04-25T08:46:44.502Z,2.28
2023-04-25T08:47:30.359Z,2.28
2023-04-25T08:48:14.379Z,2.42
2023-04-25T08:48:59.863Z,2.28
2023-04-25T08:51:13.760Z,2.15
2023-04-25T08:52:05.569Z,1.46
2023-04-25T08:52:53.243Z,2.28
2023-04-25T08:54:19.770Z,1.55
2023-04-25T08:54:44.683Z,1.55
2023-04-25T08:55:11.774Z,2.15
2023-04-25T08:56:38.877Z,2.15
2023-04-25T08:57:17.786Z,1.46
2023-04-25T08:58:00.243Z,2.28
2023-04-25T08:59:25.208Z,1.46
2023-04-25T09:01:01.015Z,2.15
2023-04-25T09:01:38.590Z,2.15
2023-04-25T09:02:24.806Z,2.15
2023-04-25T09:03:09.438Z,2.28
2023-04-25T09:03:54.283Z,1.46
2023-04-25T09:04:38.988Z,2.28
2023-04-25T09:05:24.313Z,2.15
2023-04-25T09:06:09.351Z,2.02
2023-04-25T09:06:53.893Z,2.15
2023-04-25T09:07:39.495Z,2.28
2023-04-25T09:08:27.565Z,1.55
2023-04-25T09:09:09.663Z,2.28
2023-04-25T09:09:55.932Z,1.64
2023-04-25T09:10:42.142Z,2.15
2023-04-25T09:11:24.243Z,2.28
2023-04-25T09:12:14.854Z,1.55
2023-04-25T09:13:19.241Z,1.64
2023-04-25T09:14:49.041Z,2.28
2023-04-25T09:14:56.734Z,2.28
2023-04-25T09:15:09.896Z,1.64
2023-04-25T09:15:55.087Z,2.28
2023-04-25T09:17:30.962Z,2.42
2023-04-25T09:18:10.404Z,1.74
2023-04-25T09:18:56.548Z,2.55
2023-04-25T09:19:44.165Z,1.64
2023-04-25T09:20:26.805Z,2.42
2023-04-25T09:21:15.488Z,1.64
2023-04-25T09:21:59.916Z,2.28
2023-04-25T09:22:50.241Z,2.28
2023-04-25T09:23:32.925Z,2.42
2023-04-25T09:24:10.595Z,2.55
2023-04-25T09:24:58.371Z,2.55
2023-04-25T09:25:41.639Z,2.55
2023-04-25T09:26:31.929Z,1.83
2023-04-25T09:27:12.476Z,2.69
2023-04-25T09:28:06.357Z,2.69
2023-04-25T09:28:44.300Z,2.55
2023-04-25T09:29:26.095Z,2.69
2023-04-25T09:30:14.182Z,2.55
2023-04-25T09:30:57.703Z,1.83
2023-04-25T09:31:42.001Z,1.83
2023-04-25T09:32:26.085Z,2.69
2023-04-25T09:33:18.395Z,1.74
2023-04-25T09:34:03.058Z,2.55
2023-04-25T09:34:41.258Z,2.69
2023-04-25T09:35:26.147Z,2.42
2023-04-25T09:36:25.455Z,1.74
2023-04-25T09:36:59.216Z,2.69
2023-04-25T09:37:43.196Z,1.74
2023-04-25T09:38:36.246Z,2.42
2023-04-25T09:39:11.661Z,2.55
2023-04-25T09:39:57.017Z,2.42
2023-04-25T09:40:46.021Z,1.83
2023-04-25T09:41:27.074Z,2.28
2023-04-25T09:42:11.822Z,2.42
2023-04-25T09:43:20.189Z,2.42
2023-04-25T09:44:32.148Z,2.55
2023-04-25T09:45:12.518Z,2.42
2023-04-25T09:45:58.749Z,2.55
2023-04-25T09:47:34.346Z,2.42
2023-04-25T09:48:34.343Z,2.42
2023-04-25T09:49:23.615Z,2.42
2023-04-25T09:49:42.238Z,2.69
2023-04-25T09:50:33.713Z,2.69
2023-04-25T09:51:15.804Z,1.92
2023-04-25T09:51:58.526Z,2.69
2023-04-25T09:52:43.070Z,1.92
2023-04-25T09:53:28.425Z,2.69
2023-04-25T09:54:22.688Z,1.83
2023-04-25T09:54:57.681Z,2.96
2023-04-25T09:55:44.290Z,1.92
2023-04-25T09:56:33.996Z,2.55
2023-04-25T09:57:13.207Z,2.82
2023-04-25T09:57:58.078Z,2.69
2023-04-25T09:58:42.969Z,2.69
2023-04-25T09:59:32.094Z,2.82
2023-04-25T10:00:13.532Z,2.82
2023-04-25T10:00:58.601Z,2.69
2023-04-25T10:01:44.321Z,2.82
2023-04-25T10:02:49.782Z,2.55
2023-04-25T10:03:15.700Z,2.96
2023-04-25T10:05:14.333Z,2.69
2023-04-25T10:05:34.551Z,2.96
2023-04-25T10:08:36.820Z,2.01
2023-04-25T10:09:13.799Z,2.82
2023-04-25T10:10:54.146Z,3.09
2023-04-25T10:11:40.726Z,2.82
2023-04-25T10:14:41.899Z,2.96
2023-04-25T10:15:39.929Z,2.96
2023-04-25T10:20:04.454Z,3.09
2023-04-25T10:29:06.383Z,2.69
2023-04-25T10:31:14.457Z,2.42
2023-04-25T10:31:57.104Z,2.42
2023-04-25T10:32:41.836Z,2.42
2023-04-25T10:33:27.674Z,2.42
2023-04-25T10:34:12.042Z,2.82
2023-04-25T10:34:56.818Z,1.74
2023-04-25T10:35:42.359Z,2.82
2023-04-25T10:36:27.581Z,2.82
2023-04-25T10:37:14.690Z,3.09
2023-04-25T10:38:08.455Z,3.36
2023-04-25T10:38:58.599Z,3.36
2023-04-25T10:39:27.240Z,3.76
2023-04-25T10:40:16.906Z,3.90
2023-04-25T10:40:59.806Z,3.76
2023-04-25T10:41:45.087Z,3.63
2023-04-25T10:42:32.058Z,3.63
2023-04-25T10:43:29.412Z,2.28
2023-04-25T10:44:10.611Z,3.49
2023-04-25T10:45:22.359Z,2.28
2023-04-25T10:45:34.840Z,2.82
2023-04-25T10:46:36.744Z,3.09
2023-04-25T10:47:11.190Z,3.23
2023-04-25T10:48:04.393Z,3.23
2023-04-25T10:49:30.563Z,3.09
2023-04-25T10:49:59.997Z,3.09
2023-04-25T10:51:55.513Z,2.28
2023-04-25T10:53:35.810Z,1.46
2023-04-25T10:54:02.028Z,2.15
2023-04-25T10:55:31.879Z,2.02
2023-04-25T10:56:11.110Z,1.28
2023-04-25T10:56:59.926Z,1.88
2023-04-25T10:59:44.873Z,1.28
2023-04-25T10:59:52.347Z,1.75
2023-04-25T11:03:48.178Z,1.61
2023-04-25T11:04:34.707Z,1.75
2023-04-25T11:05:58.197Z,1.61
2023-04-25T11:06:33.850Z,1.75
2023-04-25T11:08:28.842Z,1.75
2023-04-25T11:09:33.748Z,1.75
2023-04-25T11:10:17.502Z,1.75
2023-04-25T11:11:07.985Z,1.75
2023-04-25T11:12:31.820Z,1.61
2023-04-25T11:12:41.790Z,1.10
2023-04-25T11:13:20.583Z,1.61
2023-04-25T11:14:09.856Z,1.88
2023-04-25T11:14:56.737Z,1.19
2023-04-25T11:16:28.439Z,1.88
2023-04-25T11:17:57.462Z,1.61
2023-04-25T11:18:37.314Z,1.61
2023-04-25T11:19:29.646Z,1.10
2023-04-25T11:20:08.371Z,1.19
2023-04-25T11:21:35.643Z,1.61
2023-04-25T11:22:43.725Z,1.19
2023-04-25T11:23:21.578Z,1.75
2023-04-25T11:24:20.144Z,1.19
2023-04-25T11:25:25.094Z,1.75
2023-04-25T11:26:11.788Z,1.61
2023-04-25T11:26:57.338Z,1.75
2023-04-25T11:27:38.588Z,1.48
2023-04-25T11:29:50.080Z,1.75
2023-04-25T11:32:44.393Z,1.61
2023-04-25T11:38:00.925Z,1.48
2023-04-25T11:45:44.631Z,1.34
2023-04-25T11:46:09.782Z,1.21
2023-04-25T11:54:14.647Z,1.34
2023-04-25T11:56:49.775Z,1.08
2023-04-25T12:03:00.796Z,1.08
2023-04-25T12:10:20.974Z,1.08
2023-04-25T12:11:05.991Z,1.08
2023-04-25T12:11:53.450Z,0.82
2023-04-25T12:13:30.026Z,1.08
2023-04-25T12:14:19.875Z,0.73
2023-04-25T14:21:24.314Z,2.28
2023-04-25T14:22:05.878Z,2.42
2023-04-25T14:22:51.048Z,2.96
2023-04-25T14:23:34.575Z,2.96
2023-04-25T14:25:14.893Z,2.69
2023-04-25T14:26:35.095Z,2.42
2023-04-25T14:27:21.500Z,2.42
2023-04-25T14:28:08.796Z,2.42
2023-04-25T14:28:52.253Z,2.55
2023-04-25T14:34:50.682Z,2.55
2023-04-25T14:35:35.979Z,2.42
2023-04-25T14:36:20.815Z,2.42
2023-04-25T14:37:05.734Z,1.88
2023-04-25T14:37:50.977Z,2.28
2023-04-25T14:38:36.307Z,2.42
2023-04-25T14:39:21.825Z,2.42
2023-04-25T14:40:07.611Z,2.55
2023-04-25T14:40:51.377Z,2.02
2023-04-25T14:41:36.593Z,2.28
2023-04-25T14:42:21.738Z,2.28
2023-04-25T14:43:17.148Z,2.42
2023-04-25T14:43:52.930Z,1.88
2023-04-25T14:46:20.142Z,2.15
2023-04-25T14:46:53.138Z,1.46
2023-04-25T14:47:38.302Z,2.28
2023-04-25T14:48:34.243Z,2.15
2023-04-25T14:49:10.685Z,1.55
2023-04-25T14:49:52.914Z,2.15
2023-04-25T14:50:38.812Z,2.42
2023-04-25T14:51:25.789Z,1.74
2023-04-25T14:53:05.825Z,2.42
2023-04-25T14:57:33.030Z,1.74
2023-04-25T14:58:08.376Z,2.42
2023-04-25T14:58:44.639Z,2.28
2023-04-25T14:59:33.085Z,2.42
2023-04-25T15:03:36.809Z,2.82
2023-04-25T15:04:06.382Z,2.55
2023-04-25T15:05:41.167Z,2.55
2023-04-25T15:06:21.645Z,1.74
2023-04-25T15:07:07.125Z,2.55
2023-04-25T15:07:52.391Z,2.69
2023-04-25T15:08:36.857Z,2.69
2023-04-25T15:09:29.645Z,1.74
2023-04-25T15:10:19.173Z,2.55
2023-04-25T15:10:51.453Z,2.42
2023-04-25T15:11:37.037Z,1.83
2023-04-25T15:12:21.890Z,2.42
2023-04-25T15:13:07.116Z,2.28
2023-04-25T15:13:51.948Z,2.42
2023-04-25T15:14:37.105Z,2.42
2023-04-25T15:15:26.506Z,1.64
2023-04-25T15:16:07.437Z,2.42
2023-04-25T15:16:52.045Z,1.55
2023-04-25T15:17:37.753Z,2.28
2023-04-25T15:18:23.334Z,2.28
2023-04-25T15:19:07.226Z,2.42
2023-04-25T15:19:53.149Z,2.42
2023-04-25T15:20:37.462Z,2.28
2023-04-25T15:21:23.152Z,2.28
2023-04-25T15:22:07.768Z,1.64
2023-04-25T15:22:52.353Z,1.64
2023-04-25T15:23:37.823Z,2.55
2023-04-25T15:24:23.130Z,2.28
2023-04-25T15:25:07.526Z,2.28
2023-04-25T15:25:52.678Z,2.28
2023-04-25T15:26:38.083Z,2.15
2023-04-25T15:27:23.136Z,2.42
2023-04-25T15:28:07.954Z,2.28
2023-04-25T15:28:52.999Z,2.28
2023-04-25T15:29:38.078Z,2.55
2023-04-25T15:30:25.415Z,2.42
2023-04-25T15:31:07.877Z,2.42
2023-04-25T15:31:53.122Z,2.42
2023-04-25T15:32:38.145Z,2.42
2023-04-25T15:33:23.014Z,2.42
2023-04-25T15:34:08.320Z,2.15
2023-04-25T15:34:53.276Z,2.28
2023-04-25T15:35:38.341Z,2.28
2023-04-25T15:36:23.971Z,2.42
2023-04-25T15:37:08.751Z,2.42
2023-04-25T15:37:53.561Z,1.83
2023-04-25T15:38:38.559Z,2.42
2023-04-25T15:39:23.579Z,1.83
2023-04-25T15:40:08.672Z,2.55
2023-04-25T15:40:53.785Z,2.96
2023-04-25T15:41:38.759Z,2.55
2023-04-25T15:42:23.900Z,2.55
2023-04-25T15:44:06.920Z,2.01
2023-04-25T15:44:38.952Z,2.82
2023-04-25T15:45:24.993Z,2.96
2023-04-25T15:46:09.224Z,3.23
2023-04-25T15:46:55.164Z,1.92
2023-04-25T15:47:38.809Z,2.10
2023-04-25T15:48:24.918Z,1.92
2023-04-25T15:49:08.903Z,2.82
2023-04-25T15:49:53.969Z,2.96
2023-04-25T15:50:39.455Z,2.96
2023-04-25T15:51:24.466Z,2.96
2023-04-25T15:52:09.010Z,2.82
2023-04-25T15:52:54.080Z,2.82
2023-04-25T15:53:39.236Z,1.64
2023-04-25T15:54:24.179Z,1.92
2023-04-25T15:55:09.473Z,2.01
2023-04-25T15:55:54.525Z,2.82
2023-04-25T15:56:39.669Z,2.96
2023-04-25T15:57:24.547Z,1.92
2023-04-25T15:58:12.077Z,1.92
2023-04-25T15:58:54.548Z,2.82
2023-04-25T15:59:39.709Z,1.83
2023-04-25T16:00:28.556Z,2.96
2023-04-25T16:01:10.162Z,2.82
2023-04-25T16:01:54.982Z,1.92
2023-04-25T16:02:40.147Z,2.69
2023-04-25T16:03:26.875Z,2.82
2023-04-25T16:04:10.722Z,2.96
2023-04-25T16:04:55.533Z,1.83
2023-04-25T16:05:40.922Z,3.09
2023-04-25T16:06:25.201Z,2.96
2023-04-25T16:07:10.464Z,3.23
2023-04-25T16:07:55.119Z,3.23
2023-04-25T16:08:41.094Z,3.09
2023-04-25T16:09:25.665Z,2.96
2023-04-25T16:10:10.697Z,3.09
2023-04-25T16:10:57.589Z,3.09
2023-04-25T16:11:40.726Z,3.09
2023-04-25T16:12:26.468Z,3.23
2023-04-25T16:13:10.636Z,3.36
2023-04-25T16:13:58.065Z,3.49
2023-04-25T16:14:41.343Z,3.36
2023-04-25T16:16:11.397Z,3.63
2023-04-25T16:16:56.161Z,3.49
2023-04-25T16:17:40.903Z,3.36
2023-04-25T16:18:25.802Z,3.49
2023-04-25T16:19:10.852Z,3.36
2023-04-25T16:19:55.905Z,3.36
2023-04-25T16:20:41.883Z,3.23
2023-04-25T16:21:26.556Z,3.49
2023-04-25T16:22:11.471Z,3.49
2023-04-25T16:22:56.669Z,3.23
2023-04-25T16:23:41.819Z,3.23
2023-04-25T16:24:27.072Z,3.09
2023-04-25T16:25:11.996Z,2.96
2023-04-25T16:25:56.479Z,3.36
2023-04-25T16:26:41.962Z,2.69
2023-04-25T16:27:27.310Z,2.96
2023-04-25T16:28:11.835Z,2.96
2023-04-25T16:28:56.832Z,2.82
2023-04-25T16:29:42.127Z,2.96
2023-04-25T16:30:27.158Z,3.09
2023-04-25T16:31:11.961Z,2.82
2023-04-25T16:31:56.992Z,2.82
2023-04-25T16:32:43.921Z,2.82
2023-04-25T16:33:28.196Z,1.92
2023-04-25T16:34:12.080Z,2.69
2023-04-25T16:34:58.682Z,2.69
2023-04-25T16:35:42.197Z,2.82
2023-04-25T16:36:27.233Z,2.69
2023-04-25T16:37:12.638Z,1.83
2023-04-25T16:37:57.494Z,1.74
2023-04-25T16:38:42.751Z,2.42
2023-04-25T16:39:28.124Z,2.28
2023-04-25T16:40:12.952Z,2.69
2023-04-25T16:40:58.163Z,2.42
2023-04-25T16:41:42.836Z,2.42
2023-04-25T16:42:28.004Z,2.55
2023-04-25T16:43:12.979Z,2.42
2023-04-25T16:43:58.024Z,2.42
2023-04-25T16:44:44.589Z,1.64
2023-04-25T16:45:28.443Z,2.15
2023-04-25T16:46:12.687Z,1.74
2023-04-25T16:46:57.927Z,2.42
2023-04-25T16:47:43.984Z,2.42
2023-04-25T16:48:28.146Z,2.69
2023-04-25T16:49:14.712Z,2.55
2023-04-25T16:49:58.063Z,2.55
2023-04-25T16:50:43.827Z,2.69
2023-04-25T16:51:28.473Z,2.69
2023-04-25T16:52:13.285Z,2.42
2023-04-25T16:52:58.788Z,2.82
2023-04-25T16:53:43.585Z,2.69
2023-04-25T16:54:28.139Z,2.69
2023-04-25T16:55:14.014Z,2.69
2023-04-25T16:55:58.788Z,2.55
2023-04-25T16:56:44.217Z,2.55
2023-04-25T16:57:28.839Z,2.82
2023-04-25T16:58:13.480Z,2.82
2023-04-25T16:58:58.889Z,2.69
2023-04-25T16:59:43.533Z,2.69
2023-04-25T17:00:28.799Z,2.69
2023-04-25T17:01:14.544Z,1.83
2023-04-25T17:01:59.354Z,2.69
2023-04-25T17:02:44.304Z,2.55
2023-04-25T17:03:29.614Z,2.69
2023-04-25T17:04:14.671Z,2.42
2023-04-25T17:04:59.372Z,2.55
2023-04-25T17:05:44.568Z,2.42
2023-04-25T17:06:29.093Z,2.55
2023-04-25T17:07:14.272Z,2.55
2023-04-25T17:07:59.820Z,2.42
2023-04-25T17:08:44.802Z,2.28
2023-04-25T17:09:35.568Z,2.28
2023-04-25T17:10:15.095Z,1.55
2023-04-25T17:10:59.439Z,2.15
2023-04-25T17:11:44.616Z,2.28
2023-04-25T17:12:30.452Z,2.28
2023-04-25T17:13:15.611Z,1.88
2023-04-25T17:14:00.176Z,2.02
2023-04-25T17:14:44.816Z,2.02
2023-04-25T17:15:31.001Z,2.15
2023-04-25T17:16:15.120Z,2.15
2023-04-25T17:16:59.812Z,1.88
2023-04-25T17:17:45.486Z,2.02
2023-04-25T17:18:30.177Z,2.28
2023-04-25T17:19:15.089Z,2.15
2023-04-25T17:20:00.635Z,1.55
2023-04-25T17:20:45.375Z,2.15
2023-04-25T17:21:30.348Z,2.15
2023-04-25T17:22:15.509Z,2.15
2023-04-25T17:23:00.574Z,2.15
2023-04-25T17:23:45.352Z,2.28
2023-04-25T17:24:31.156Z,2.28
2023-04-25T17:25:15.547Z,2.15
2023-04-25T17:26:00.395Z,1.28
2023-04-25T17:26:48.154Z,2.15
2023-04-25T17:27:30.594Z,1.88
2023-04-25T17:28:16.167Z,2.15
2023-04-25T17:29:00.793Z,2.15
2023-04-25T17:29:46.075Z,2.15
2023-04-25T17:30:31.101Z,2.15
2023-04-25T17:31:16.940Z,2.15
2023-04-25T17:32:01.285Z,1.28
2023-04-25T17:32:46.742Z,2.02
2023-04-25T17:33:30.738Z,2.02
2023-04-25T17:34:16.290Z,2.15
2023-04-25T17:35:01.273Z,1.37
2023-04-25T17:35:46.907Z,1.37
2023-04-25T17:36:31.074Z,1.88
2023-04-25T17:37:16.319Z,1.88
2023-04-25T17:38:02.290Z,2.15
2023-04-25T17:38:47.258Z,1.75
2023-04-25T17:39:31.777Z,1.88
2023-04-25T17:40:16.929Z,2.02
2023-04-25T17:41:01.551Z,2.02
2023-04-25T17:41:46.937Z,1.88
2023-04-25T17:42:31.519Z,2.02
2023-04-25T17:43:17.362Z,2.02
2023-04-25T17:44:01.882Z,2.02
2023-04-25T17:44:47.322Z,1.46
2023-04-25T17:45:32.369Z,1.19
2023-04-25T17:46:17.288Z,2.15
2023-04-25T17:47:01.832Z,2.15
2023-04-25T17:47:47.143Z,2.15
2023-04-25T17:48:32.532Z,2.02
2023-04-25T17:49:17.398Z,1.37
2023-04-25T17:50:02.428Z,1.75
2023-04-25T17:50:47.489Z,1.28
2023-04-25T17:51:32.205Z,1.88
2023-04-25T17:52:17.890Z,2.02
2023-04-25T17:53:02.484Z,2.15
2023-04-25T17:53:47.994Z,1.75
2023-04-25T17:54:32.874Z,2.02
2023-04-25T17:55:18.186Z,1.88
2023-04-25T17:56:03.996Z,2.02
2023-04-25T17:56:47.698Z,1.88
2023-04-25T17:57:32.938Z,1.88
2023-04-25T17:58:19.309Z,1.46
2023-04-25T17:59:03.310Z,1.88
2023-04-25T17:59:48.387Z,1.88
2023-04-25T18:00:33.368Z,2.02
2023-04-25T18:01:20.437Z,1.88
2023-04-25T18:02:03.289Z,2.02
2023-04-25T18:02:48.252Z,2.02
2023-04-25T18:03:33.991Z,2.02
2023-04-25T18:04:18.534Z,2.02
2023-04-25T18:05:03.608Z,1.88
2023-04-25T18:05:48.354Z,1.28
2023-04-25T18:06:34.222Z,2.02
2023-04-25T18:07:18.867Z,1.75
2023-04-25T18:08:04.014Z,2.02
2023-04-25T18:08:49.304Z,2.15
2023-04-25T18:09:34.054Z,1.88
2023-04-25T18:10:18.684Z,1.88
2023-04-25T18:11:03.853Z,2.02
2023-04-25T18:11:48.543Z,2.15
2023-04-25T18:12:33.600Z,1.88
2023-04-25T18:13:19.313Z,1.88
2023-04-25T18:14:03.974Z,2.02
2023-04-25T18:14:49.302Z,1.88
2023-04-25T18:15:34.596Z,2.02
2023-04-25T18:16:19.166Z,2.02
2023-04-25T18:17:04.894Z,1.37
2023-04-25T18:17:49.774Z,2.02
2023-04-25T18:18:34.512Z,1.88
2023-04-25T18:19:19.779Z,2.15
2023-04-25T18:20:05.090Z,2.15
2023-04-25T18:20:49.437Z,2.02
2023-04-25T18:21:34.635Z,2.15
2023-04-25T18:22:19.704Z,2.15
2023-04-25T18:23:04.555Z,2.15
2023-04-25T18:23:49.911Z,2.28
2023-04-25T18:24:34.503Z,2.15
2023-04-25T18:25:19.745Z,2.02
2023-04-25T18:26:04.576Z,2.15
2023-04-25T18:26:51.193Z,2.02
2023-04-25T18:27:35.147Z,2.15
2023-04-25T18:28:20.265Z,2.02
2023-04-25T18:29:05.721Z,2.15
2023-04-25T18:29:49.953Z,2.15
2023-04-25T18:30:34.991Z,2.15
2023-04-25T18:31:20.306Z,2.15
2023-04-25T18:32:05.299Z,2.15
2023-04-25T18:32:51.651Z,2.15
2023-04-25T18:33:36.036Z,2.02
2023-04-25T18:34:20.757Z,2.02
2023-04-25T18:35:06.046Z,2.15
2023-04-25T18:35:58.026Z,2.15
2023-04-25T18:36:35.765Z,2.15
2023-04-25T18:37:20.723Z,2.02
2023-04-25T18:38:05.479Z,2.15
2023-04-25T18:38:51.427Z,2.28
2023-04-25T18:39:35.699Z,2.15
2023-04-25T18:40:21.205Z,2.15
2023-04-25T18:41:57.957Z,2.02
2023-04-25T18:42:35.812Z,2.28
2023-04-25T18:43:21.836Z,2.28
2023-04-25T18:44:06.150Z,2.42
2023-04-25T18:44:51.101Z,2.55
2023-04-25T18:45:36.297Z,2.28
2023-04-25T18:46:21.953Z,2.55
2023-04-25T18:47:06.349Z,2.55
2023-04-25T18:47:51.554Z,2.55
2023-04-25T18:48:36.788Z,2.28
2023-04-25T18:49:21.759Z,2.42
2023-04-25T18:50:06.455Z,2.42
2023-04-25T18:50:52.356Z,2.42
2023-04-25T18:51:36.981Z,2.69
2023-04-25T18:52:21.756Z,1.64
2023-04-25T18:53:06.728Z,2.82
2023-04-25T18:53:52.787Z,2.69
2023-04-25T18:54:37.457Z,2.55
2023-04-25T18:55:22.881Z,2.55
2023-04-25T18:56:06.858Z,2.42
2023-04-25T18:56:52.278Z,2.28
2023-04-25T18:57:37.228Z,2.55
2023-04-25T18:58:25.498Z,2.69
2023-04-25T18:59:07.465Z,1.64
2023-04-25T18:59:52.307Z,2.55
2023-04-25T19:00:37.168Z,2.69
2023-04-25T19:01:22.377Z,2.55
2023-04-25T19:02:08.207Z,1.74
2023-04-25T19:02:53.242Z,2.55
2023-04-25T19:03:38.090Z,2.55
2023-04-25T19:04:27.676Z,2.55
2023-04-25T19:05:07.311Z,2.55
2023-04-25T19:05:52.675Z,2.69
2023-04-25T19:06:37.933Z,2.69
2023-04-25T19:07:23.093Z,2.69
2023-04-25T19:08:08.057Z,2.69
2023-04-25T19:08:53.381Z,2.42
2023-04-25T19:09:37.854Z,2.69
2023-04-25T19:10:23.424Z,1.92
2023-04-25T19:11:20.151Z,2.82
2023-04-25T19:11:53.218Z,2.69
2023-04-25T19:12:37.944Z,2.69
2023-04-25T19:13:23.616Z,2.82
2023-04-25T19:14:08.165Z,2.69
2023-04-25T19:14:53.461Z,2.82
2023-04-25T19:15:38.394Z,1.83
2023-04-25T19:16:24.305Z,2.69
2023-04-25T19:17:08.613Z,2.69
2023-04-25T19:17:54.568Z,2.82
2023-04-25T19:18:39.775Z,2.69
2023-04-25T19:19:24.226Z,2.82
2023-04-25T19:20:08.764Z,2.82
2023-04-25T19:20:54.187Z,2.82
2023-04-25T19:21:38.946Z,2.82
2023-04-25T19:22:23.806Z,2.69
2023-04-25T19:23:09.269Z,3.09
2023-04-25T19:23:54.823Z,2.82
2023-04-25T19:24:39.399Z,2.96
2023-04-25T19:25:24.415Z,2.55
2023-04-25T19:26:08.989Z,2.82
2023-04-25T19:26:54.114Z,3.09
2023-04-25T19:27:39.418Z,2.82
2023-04-25T19:28:27.428Z,2.69
2023-04-25T19:29:09.107Z,2.55
2023-04-25T19:29:55.881Z,2.82
2023-04-25T19:30:39.735Z,2.82
2023-04-25T19:31:24.421Z,2.69
2023-04-25T19:32:09.225Z,2.01
2023-04-25T19:32:55.173Z,2.69
2023-04-25T19:33:40.185Z,2.82
2023-04-25T19:34:24.737Z,1.92
2023-04-25T19:35:11.158Z,2.82
2023-04-25T19:35:55.177Z,2.69
2023-04-25T19:36:39.773Z,2.96
2023-04-25T19:37:24.808Z,2.69
2023-04-25T19:38:09.692Z,2.69
2023-04-25T19:38:55.098Z,2.82
2023-04-25T19:39:39.935Z,2.82
2023-04-25T19:40:25.195Z,2.82
2023-04-25T19:41:10.123Z,3.09
2023-04-25T19:41:55.456Z,2.82
2023-04-25T19:42:40.340Z,2.69
2023-04-25T19:43:25.088Z,2.96
2023-04-25T19:44:10.106Z,2.82
2023-04-25T19:44:55.105Z,2.82
2023-04-25T19:45:40.654Z,2.82
2023-04-25T19:46:26.050Z,2.69
2023-04-25T19:47:10.849Z,2.69
2023-04-25T19:47:55.528Z,2.82
2023-04-25T19:48:40.690Z,2.82
2023-04-25T19:49:25.506Z,2.69
2023-04-25T19:50:10.499Z,2.96
2023-04-25T19:50:55.536Z,2.96
2023-04-25T19:51:40.474Z,2.82
2023-04-25T19:52:25.754Z,2.82
2023-04-25T19:53:10.688Z,2.82
2023-04-25T19:53:55.952Z,1.83
2023-04-25T19:54:41.272Z,2.69
2023-04-25T19:55:26.572Z,2.55
2023-04-25T19:56:11.431Z,1.92
2023-04-25T19:56:56.020Z,2.01
2023-04-25T19:57:41.248Z,2.96
2023-04-25T19:58:26.311Z,2.82
2023-04-25T19:59:11.154Z,2.96
2023-04-25T19:59:56.340Z,3.23
2023-04-25T20:00:41.274Z,3.23
2023-04-25T20:01:26.727Z,2.96
2023-04-25T20:02:11.828Z,3.23
2023-04-25T20:02:56.590Z,3.09
2023-04-25T20:03:41.740Z,3.09
2023-04-25T20:04:26.168Z,2.10
2023-04-25T20:05:11.925Z,2.01
2023-04-25T20:05:57.467Z,2.96
2023-04-25T20:06:42.159Z,3.36
2023-04-25T20:07:27.150Z,3.36
2023-04-25T20:08:15.541Z,2.96
2023-04-25T20:08:57.190Z,2.10
2023-04-25T20:09:42.053Z,2.96
2023-04-25T20:10:26.701Z,3.23
2023-04-25T20:11:12.288Z,2.96
2023-04-25T20:11:57.049Z,3.23
2023-04-25T20:12:42.072Z,3.23
2023-04-25T20:13:27.280Z,3.23
2023-04-25T20:14:12.578Z,2.19
2023-04-25T20:14:57.441Z,2.28
2023-04-25T20:15:42.536Z,3.23
2023-04-25T20:16:28.166Z,3.09
2023-04-25T20:17:12.513Z,2.96
2023-04-25T20:17:57.609Z,3.23
2023-04-25T20:18:42.635Z,3.23
2023-04-25T20:19:28.247Z,3.23
2023-04-25T20:20:13.977Z,3.63
2023-04-25T20:20:58.128Z,2.96
2023-04-25T20:21:42.932Z,3.23
2023-04-25T20:22:28.015Z,3.49
2023-04-25T20:23:13.457Z,3.36
2023-04-25T20:23:58.036Z,2.28
2023-04-25T20:24:42.874Z,3.49
2023-04-25T20:25:27.930Z,3.49
2023-04-25T20:26:14.195Z,3.63
2023-04-25T20:26:58.491Z,3.36
2023-04-25T20:27:43.022Z,3.49
2023-04-25T20:28:28.382Z,3.49
2023-04-25T20:29:13.115Z,3.36
2023-04-25T20:29:58.802Z,3.36